Time,TemperatureF,DewpointF,PressureIn,WindDirection,WindDirectionDegrees,WindSpeedMPH,WindSpeedGustMPH,Humidity,HourlyPrecipIn,Conditions,Clouds,dailyrainin,SoftwareType,DateUTC
2013-06-20 00:11:00,69.4,60.0,30.06,ESE,120,0.0,-999.0,71,-99.99,,,0.00,weatherlink.com 1.10,2013-06-20 05:11:00,
2013-06-20 00:26:00,69.5,60.0,30.06,ESE,123,0.0,-999.0,71,-99.99,,,0.00,weatherlink.com 1.10,2013-06-20 05:26:00,
2013-06-20 00:41:00,70.1,60.0,30.06,SE,136,0.0,-999.0,70,-99.99,,,0.00,weatherlink.com 1.10,2013-06-20 05:41:00,
2013-06-20 00:57:00,70.1,59.0,30.06,ESE,121,5.0,-999.0,69,-99.99,,,0.00,weatherlink.com 1.10,2013-06-20 05:57:00,
2013-06-20 01:12:00,70.1,59.0,30.06,SE,138,0.0,-999.0,69,-99.99,,,0.00,weatherlink.com 1.10,2013-06-20 06:12:00,
2013-06-20 01:27:00,69.8,59.0,30.06,SE,137,0.0,-999.0,69,-99.99,,,0.00,weatherlink.com 1.10,2013-06-20 06:27:00,
2013-06-20 01:42:00,69.4,59.0,30.06,SE,132,0.0,-999.0,70,-99.99,,,0.00,weatherlink.com 1.10,2013-06-20 06:42:00,
2013-06-20 01:57:00,69.2,59.0,30.07,SE,132,0.0,-999.0,70,-99.99,,,0.00,weatherlink.com 1.10,2013-06-20 06:57:00,
2013-06-20 02:13:00,69.0,59.0,30.06,ESE,123,0.0,-999.0,71,-99.99,,,0.00,weatherlink.com 1.10,2013-06-20 07:13:00,
2013-06-20 02:28:00,68.5,59.0,30.06,SE,125,0.0,-999.0,72,-99.99,,,0.00,weatherlink.com 1.10,2013-06-20 07:28:00,
2013-06-20 02:43:00,68.2,59.0,30.06,ESE,117,0.0,-999.0,73,-99.99,,,0.00,weatherlink.com 1.10,2013-06-20 07:43:00,
2013-06-20 02:58:00,68.3,59.0,30.06,ESE,117,0.0,-999.0,73,-99.99,,,0.00,weatherlink.com 1.10,2013-06-20 07:58:00,
2013-06-20 03:13:00,68.3,59.0,30.06,ESE,119,0.0,-999.0,73,-99.99,,,0.00,weatherlink.com 1.10,2013-06-20 08:13:00,
2013-06-20 03:28:00,68.0,60.0,30.06,ESE,121,0.0,-999.0,75,-99.99,,,0.00,weatherlink.com 1.10,2013-06-20 08:28:00,
2013-06-20 03:43:00,67.9,60.0,30.07,ESE,121,0.0,-999.0,75,-99.99,,,0.00,weatherlink.com 1.10,2013-06-20 08:43:00,
2013-06-20 03:58:00,67.7,60.0,30.07,ESE,119,0.0,-999.0,76,-99.99,,,0.00,weatherlink.com 1.10,2013-06-20 08:58:00,
2013-06-20 04:12:00,67.6,60.0,30.07,ESE,122,0.0,-999.0,76,-99.99,,,0.00,weatherlink.com 1.10,2013-06-20 09:12:00,
2013-06-20 04:27:00,67.5,60.0,30.07,ESE,122,0.0,-999.0,76,-99.99,,,0.00,weatherlink.com 1.10,2013-06-20 09:27:00,
2013-06-20 04:42:00,67.2,60.0,30.07,ESE,122,0.0,-999.0,77,-99.99,,,0.00,weatherlink.com 1.10,2013-06-20 09:42:00,
2013-06-20 04:57:00,66.7,60.0,30.07,SE,128,0.0,-999.0,78,-99.99,,,0.00,weatherlink.com 1.10,2013-06-20 09:57:00,
2013-06-20 05:13:00,66.3,60.0,30.07,SE,128,0.0,-999.0,79,-99.99,,,0.00,weatherlink.com 1.10,2013-06-20 10:13:00,
2013-06-20 05:28:00,66.1,60.0,30.08,SE,128,0.0,-999.0,80,-99.99,,,0.00,weatherlink.com 1.10,2013-06-20 10:28:00,
2013-06-20 05:43:00,65.9,60.0,30.08,SE,128,0.0,-999.0,80,-99.99,,,0.00,weatherlink.com 1.10,2013-06-20 10:43:00,
2013-06-20 05:58:00,66.0,60.0,30.08,SE,128,0.0,-999.0,80,-99.99,,,0.00,weatherlink.com 1.10,2013-06-20 10:58:00,
2013-06-20 06:13:00,66.2,60.0,30.09,SE,128,0.0,-999.0,80,-99.99,,,0.00,weatherlink.com 1.10,2013-06-20 11:13:00,
2013-06-20 06:28:00,66.5,61.0,30.09,SE,128,0.0,-999.0,81,-99.99,,,0.00,weatherlink.com 1.10,2013-06-20 11:28:00,
2013-06-20 06:43:00,66.9,61.0,30.09,SE,128,0.0,-999.0,80,-99.99,,,0.00,weatherlink.com 1.10,2013-06-20 11:43:00,
2013-06-20 06:58:00,67.3,61.0,30.09,SE,128,2.0,-999.0,80,-99.99,,,0.00,weatherlink.com 1.10,2013-06-20 11:58:00,
2013-06-20 07:12:00,68.0,62.0,30.09,SE,136,0.0,-999.0,80,-99.99,,,0.00,weatherlink.com 1.10,2013-06-20 12:12:00,
2013-06-20 07:28:00,69.4,62.0,30.10,SE,140,1.0,-999.0,78,-99.99,,,0.00,weatherlink.com 1.10,2013-06-20 12:28:00,
2013-06-20 07:43:00,70.8,63.0,30.11,SSE,167,0.0,-999.0,77,-99.99,,,0.00,weatherlink.com 1.10,2013-06-20 12:43:00,
2013-06-20 07:58:00,71.9,64.0,30.11,South,189,0.0,-999.0,76,-99.99,,,0.00,weatherlink.com 1.10,2013-06-20 12:58:00,
2013-06-20 08:13:00,72.8,64.0,30.11,South,177,0.0,-999.0,75,-99.99,,,0.00,weatherlink.com 1.10,2013-06-20 13:13:00,
2013-06-20 08:28:00,73.7,65.0,30.11,SSE,149,0.0,-999.0,73,-99.99,,,0.00,weatherlink.com 1.10,2013-06-20 13:28:00,
2013-06-20 08:43:00,74.6,65.0,30.11,South,175,2.0,-999.0,73,-99.99,,,0.00,weatherlink.com 1.10,2013-06-20 13:43:00,
2013-06-20 08:58:00,75.4,65.0,30.11,South,175,7.0,-999.0,71,-99.99,,,0.00,weatherlink.com 1.10,2013-06-20 13:58:00,
2013-06-20 09:14:00,77.1,66.0,30.11,SSW,202,6.0,-999.0,69,-99.99,,,0.00,weatherlink.com 1.10,2013-06-20 14:14:00,
2013-06-20 09:29:00,78.1,65.0,30.12,SW,214,5.0,-999.0,65,-99.99,,,0.00,weatherlink.com 1.10,2013-06-20 14:29:00,
2013-06-20 09:44:00,78.4,66.0,30.11,South,176,4.0,-999.0,66,-99.99,,,0.00,weatherlink.com 1.10,2013-06-20 14:44:00,
2013-06-20 09:59:00,79.0,66.0,30.11,WSW,243,0.0,-999.0,65,-99.99,,,0.00,weatherlink.com 1.10,2013-06-20 14:59:00,
2013-06-20 10:14:00,79.8,67.0,30.11,South,185,0.0,-999.0,64,-99.99,,,0.00,weatherlink.com 1.10,2013-06-20 15:14:00,
2013-06-20 10:29:00,79.7,66.0,30.11,SE,144,3.0,-999.0,64,-99.99,,,0.00,weatherlink.com 1.10,2013-06-20 15:29:00,
2013-06-20 10:44:00,80.5,67.0,30.11,SE,131,4.0,-999.0,63,-99.99,,,0.00,weatherlink.com 1.10,2013-06-20 15:44:00,
2013-06-20 10:59:00,81.2,67.0,30.11,South,169,0.0,-999.0,63,-99.99,,,0.00,weatherlink.com 1.10,2013-06-20 15:59:00,
2013-06-20 11:13:00,82.0,67.0,30.10,SE,130,3.0,-999.0,60,-99.99,,,0.00,weatherlink.com 1.10,2013-06-20 16:13:00,
2013-06-20 11:28:00,82.3,66.0,30.10,SSE,154,9.0,-999.0,59,-99.99,,,0.00,weatherlink.com 1.10,2013-06-20 16:28:00,
2013-06-20 11:43:00,81.8,66.0,30.10,SW,217,0.0,-999.0,59,-99.99,,,0.00,weatherlink.com 1.10,2013-06-20 16:43:00,
2013-06-20 11:59:00,83.1,66.0,30.10,SSW,202,4.0,-999.0,56,-99.99,,,0.00,weatherlink.com 1.10,2013-06-20 16:59:00,
2013-06-20 12:14:00,83.4,67.0,30.09,South,188,0.0,-999.0,57,-99.99,,,0.00,weatherlink.com 1.10,2013-06-20 17:14:00,
2013-06-20 12:29:00,83.5,65.0,30.09,South,175,6.0,-999.0,53,-99.99,,,0.00,weatherlink.com 1.10,2013-06-20 17:29:00,
2013-06-20 12:44:00,83.9,65.0,30.08,SSE,148,5.0,-999.0,53,-99.99,,,0.00,weatherlink.com 1.10,2013-06-20 17:44:00,
2013-06-20 12:59:00,84.5,64.0,30.08,SSW,203,1.0,-999.0,51,-99.99,,,0.00,weatherlink.com 1.10,2013-06-20 17:59:00,
2013-06-20 13:15:00,85.0,64.0,30.08,ESE,123,5.0,-999.0,50,-99.99,,,0.00,weatherlink.com 1.10,2013-06-20 18:15:00,
2013-06-20 13:30:00,85.2,64.0,30.08,South,184,0.0,-999.0,50,-99.99,,,0.00,weatherlink.com 1.10,2013-06-20 18:30:00,
2013-06-20 13:45:00,85.3,66.0,30.08,SSE,153,0.0,-999.0,52,-99.99,,,0.00,weatherlink.com 1.10,2013-06-20 18:45:00,
2013-06-20 14:00:00,85.3,65.0,30.08,South,171,9.0,-999.0,51,-99.99,,,0.00,weatherlink.com 1.10,2013-06-20 19:00:00,
2013-06-20 14:14:00,84.5,65.0,30.07,SSE,163,0.0,-999.0,52,-99.99,,,0.00,weatherlink.com 1.10,2013-06-20 19:14:00,
2013-06-20 14:29:00,84.8,66.0,30.07,SE,135,4.0,-999.0,53,-99.99,,,0.00,weatherlink.com 1.10,2013-06-20 19:29:00,
2013-06-20 14:44:00,85.0,65.0,30.07,South,189,0.0,-999.0,52,-99.99,,,0.00,weatherlink.com 1.10,2013-06-20 19:44:00,
2013-06-20 14:59:00,85.0,66.0,30.07,SSE,159,10.0,-999.0,53,-99.99,,,0.00,weatherlink.com 1.10,2013-06-20 19:59:00,
2013-06-20 15:15:00,84.7,66.0,30.06,South,173,0.0,-999.0,53,-99.99,,,0.00,weatherlink.com 1.10,2013-06-20 20:15:00,
2013-06-20 15:30:00,85.5,65.0,30.06,SSE,162,2.0,-999.0,50,-99.99,,,0.00,weatherlink.com 1.10,2013-06-20 20:30:00,
2013-06-20 15:45:00,85.6,65.0,30.06,SSE,153,7.0,-999.0,50,-99.99,,,0.00,weatherlink.com 1.10,2013-06-20 20:45:00,
2013-06-20 16:00:00,85.3,65.0,30.06,SSE,161,2.0,-999.0,51,-99.99,,,0.00,weatherlink.com 1.10,2013-06-20 21:00:00,
2013-06-20 16:15:00,85.3,65.0,30.06,SSE,166,1.0,-999.0,50,-99.99,,,0.00,weatherlink.com 1.10,2013-06-20 21:15:00,
2013-06-20 16:30:00,85.5,65.0,30.05,SSE,159,10.0,-999.0,50,-99.99,,,0.00,weatherlink.com 1.10,2013-06-20 21:30:00,
2013-06-20 16:45:00,85.6,65.0,30.05,SE,126,2.0,-999.0,50,-99.99,,,0.00,weatherlink.com 1.10,2013-06-20 21:45:00,
2013-06-20 17:00:00,85.6,65.0,30.04,SSE,155,2.0,-999.0,50,-99.99,,,0.00,weatherlink.com 1.10,2013-06-20 22:00:00,
2013-06-20 17:15:00,85.0,65.0,30.04,SSE,165,0.0,-999.0,51,-99.99,,,0.00,weatherlink.com 1.10,2013-06-20 22:15:00,
2013-06-20 17:30:00,85.5,65.0,30.04,South,187,0.0,-999.0,50,-99.99,,,0.00,weatherlink.com 1.10,2013-06-20 22:30:00,
2013-06-20 17:45:00,85.3,64.0,30.04,South,182,0.0,-999.0,49,-99.99,,,0.00,weatherlink.com 1.10,2013-06-20 22:45:00,
2013-06-20 18:00:00,85.7,64.0,30.04,SW,223,2.0,-999.0,48,-99.99,,,0.00,weatherlink.com 1.10,2013-06-20 23:00:00,
2013-06-20 18:15:00,85.5,64.0,30.04,SSW,204,0.0,-999.0,49,-99.99,,,0.00,weatherlink.com 1.10,2013-06-20 23:15:00,
2013-06-20 18:30:00,85.4,64.0,30.04,South,180,3.0,-999.0,49,-99.99,,,0.00,weatherlink.com 1.10,2013-06-20 23:30:00,
2013-06-20 18:45:00,85.0,64.0,30.05,SSE,161,0.0,-999.0,49,-99.99,,,0.00,weatherlink.com 1.10,2013-06-20 23:45:00,
2013-06-20 19:00:00,84.8,64.0,30.04,SSE,167,0.0,-999.0,49,-99.99,,,0.00,weatherlink.com 1.10,2013-06-21 00:00:00,
2013-06-20 19:15:00,84.1,64.0,30.04,SSE,159,0.0,-999.0,51,-99.99,,,0.00,weatherlink.com 1.10,2013-06-21 00:15:00,
2013-06-20 19:30:00,83.4,64.0,30.04,SSE,148,0.0,-999.0,53,-99.99,,,0.00,weatherlink.com 1.10,2013-06-21 00:30:00,
2013-06-20 19:45:00,82.7,64.0,30.04,SSE,147,0.0,-999.0,54,-99.99,,,0.00,weatherlink.com 1.10,2013-06-21 00:45:00,
2013-06-20 20:00:00,82.0,64.0,30.04,SSE,148,0.0,-999.0,55,-99.99,,,0.00,weatherlink.com 1.10,2013-06-21 01:00:00,
2013-06-20 20:15:00,81.3,64.0,30.04,SSE,155,0.0,-999.0,56,-99.99,,,0.00,weatherlink.com 1.10,2013-06-21 01:15:00,
2013-06-20 20:30:00,80.6,64.0,30.04,SSE,157,0.0,-999.0,57,-99.99,,,0.00,weatherlink.com 1.10,2013-06-21 01:30:00,
2013-06-20 20:45:00,79.8,64.0,30.04,SSE,157,0.0,-999.0,59,-99.99,,,0.00,weatherlink.com 1.10,2013-06-21 01:45:00,
2013-06-20 21:00:00,79.2,65.0,30.05,SSE,152,0.0,-999.0,61,-99.99,,,0.00,weatherlink.com 1.10,2013-06-21 02:00:00,
2013-06-20 21:15:00,78.6,64.0,30.05,SSE,155,0.0,-999.0,62,-99.99,,,0.00,weatherlink.com 1.10,2013-06-21 02:15:00,
2013-06-20 21:30:00,78.0,64.0,30.06,SE,141,0.0,-999.0,63,-99.99,,,0.00,weatherlink.com 1.10,2013-06-21 02:30:00,
2013-06-20 21:45:00,77.3,64.0,30.06,SE,146,0.0,-999.0,63,-99.99,,,0.00,weatherlink.com 1.10,2013-06-21 02:45:00,
2013-06-20 22:00:00,77.0,64.0,30.06,SSE,163,0.0,-999.0,64,-99.99,,,0.00,weatherlink.com 1.10,2013-06-21 03:00:00,
2013-06-20 22:15:00,76.6,63.0,30.06,SSE,159,0.0,-999.0,64,-99.99,,,0.00,weatherlink.com 1.10,2013-06-21 03:15:00,
2013-06-20 22:30:00,76.3,64.0,30.07,SSE,159,0.0,-999.0,65,-99.99,,,0.00,weatherlink.com 1.10,2013-06-21 03:30:00,
2013-06-20 22:45:00,75.8,63.0,30.08,SSE,159,0.0,-999.0,65,-99.99,,,0.00,weatherlink.com 1.10,2013-06-21 03:45:00,
2013-06-20 23:00:00,75.0,63.0,30.08,SSE,159,0.0,-999.0,67,-99.99,,,0.00,weatherlink.com 1.10,2013-06-21 04:00:00,
2013-06-20 23:16:00,74.4,63.0,30.08,SSE,159,0.0,-999.0,68,-99.99,,,0.00,weatherlink.com 1.10,2013-06-21 04:16:00,
2013-06-20 23:31:00,74.3,63.0,30.08,SE,144,0.0,-999.0,69,-99.99,,,0.00,weatherlink.com 1.10,2013-06-21 04:31:00,
2013-06-20 23:46:00,73.9,64.0,30.09,SE,144,0.0,-999.0,70,-99.99,,,0.00,weatherlink.com 1.10,2013-06-21 04:46:00,